Time;durP1;ratioP1;P1;durP2;ratioP2;P2;SDS_P1;SDS_P2;PMS_P1;PMS_P2;Temp;Humidity;BMP_temperature;BMP_pressure;BME280_temperature;BME280_humidity;BME280_pressure;Samples;Min_cycle;Max_cycle;Signal;HPM_P1;HPM_P2
2022/02/10 00:07:48;;;;;;;33.83;12.98;;;;;;;7.33;82.36;101726.66;5082465;28;20119;-64
2022/02/10 00:21:02;;;;;;;34.78;13.68;;;;;;;7.09;83.41;101704.53;5093701;28;20571;-64
2022/02/10 00:24:06;;;;;;;35.70;13.27;;;;;;;7.05;83.28;101699.56;5088743;28;20565;-64
2022/02/10 00:34:43;;;;;;;34.00;12.98;;;;;;;6.66;84.75;101689.06;5089450;28;20036;-61
2022/02/10 00:37:13;;;;;;;37.90;12.98;;;;;;;6.56;84.90;101689.78;5093835;28;20036;-64
2022/02/10 00:40:13;;;;;;;36.17;12.73;;;;;;;6.62;84.81;101698.13;5093136;28;20086;-64
2022/02/10 00:42:27;;;;;;;31.15;13.98;;;;;;;6.72;84.63;101691.25;5094411;28;20052;-63
2022/02/10 00:44:54;;;;;;;30.23;13.93;;;;;;;6.65;84.82;101689.97;5094720;28;20048;-63
2022/02/10 00:47:20;;;;;;;30.10;11.77;;;;;;;6.65;85.31;101681.25;5093771;28;20532;-64
2022/02/10 00:49:48;;;;;;;36.90;12.57;;;;;;;6.61;85.18;101685.88;5073144;28;20056;-64
2022/02/10 00:52:15;;;;;;;35.40;12.77;;;;;;;6.73;85.13;101682.41;5088315;28;20040;-63
2022/02/10 00:54:42;;;;;;;41.53;13.05;;;;;;;6.68;85.07;101683.69;5084011;28;20491;-63
2022/02/10 00:57:09;;;;;;;29.73;11.68;;;;;;;6.66;85.17;101685.56;5093567;28;20051;-63
2022/02/10 01:10:31;;;;;;;38.97;12.82;;;;;;;6.41;85.93;101662.69;5036251;28;20493;-62
2022/02/10 01:13:21;;;;;;;38.67;12.90;;;;;;;6.37;85.91;101661.19;5020329;28;20068;-62
2022/02/10 01:29:45;;;;;;;27.65;12.50;;;;;;;6.07;86.00;101647.34;5027343;28;20065;-62
2022/02/10 01:32:15;;;;;;;26.88;12.70;;;;;;;6.07;86.50;101660.50;5028501;28;20042;-62
2022/02/10 01:34:48;;;;;;;27.83;12.77;;;;;;;6.05;86.80;101653.66;5026714;28;20042;-62
2022/02/10 01:37:16;;;;;;;28.17;12.70;;;;;;;6.14;86.55;101651.25;5029721;28;20042;-62
2022/02/10 01:39:49;;;;;;;28.02;12.20;;;;;;;6.05;87.04;101649.22;5028300;28;20038;-63
2022/02/10 02:04:28;;;;;;;29.45;14.05;;;;;;;5.88;86.90;101617.88;5054726;28;20051;-62
2022/02/10 02:06:57;;;;;;;26.63;13.23;;;;;;;5.80;87.58;101612.28;5090227;28;20094;-64
2022/02/10 02:09:24;;;;;;;29.67;13.57;;;;;;;5.86;87.55;101618.00;5089712;28;20047;-63
2022/02/10 02:11:55;;;;;;;29.67;13.32;;;;;;;5.87;87.34;101614.38;5072572;28;20040;-64
2022/02/10 02:14:24;;;;;;;34.88;14.35;;;;;;;6.06;87.02;101610.59;5071566;28;20051;-64
2022/02/10 02:16:59;;;;;;;34.85;13.63;;;;;;;5.96;86.74;101599.81;5090278;28;20052;-64
2022/02/10 02:19:27;;;;;;;26.88;12.60;;;;;;;6.05;86.82;101601.81;5083106;28;20405;-63
2022/02/10 02:21:58;;;;;;;29.42;12.98;;;;;;;6.02;86.29;101594.13;5088892;28;20048;-64
2022/02/10 02:24:25;;;;;;;28.50;13.55;;;;;;;6.01;87.07;101584.53;5088713;28;20400;-64
2022/02/10 02:26:55;;;;;;;32.60;12.93;;;;;;;5.95;86.59;101590.19;5054425;28;20438;-64
2022/02/10 02:29:28;;;;;;;34.67;13.13;;;;;;;6.06;86.27;101582.44;5070706;28;20051;-64
2022/02/10 02:31:59;;;;;;;31.00;13.35;;;;;;;6.00;86.78;101587.28;5091940;28;20040;-64
2022/02/10 03:05:21;;;;;;;26.58;12.85;;;;;;;5.93;86.72;101539.41;5091698;28;20039;-63
2022/02/10 03:07:51;;;;;;;32.92;13.98;;;;;;;5.89;86.29;101533.50;5107971;28;20050;-63
2022/02/10 03:10:37;;;;;;;34.80;13.95;;;;;;;5.90;86.12;101527.28;5091554;28;20063;-63
2022/02/10 03:13:06;;;;;;;30.92;13.82;;;;;;;5.85;86.43;101524.13;5057851;28;20570;-63
2022/02/10 03:15:43;;;;;;;31.40;13.27;;;;;;;5.79;85.88;101508.75;5075596;28;20052;-63
2022/02/10 03:18:18;;;;;;;24.75;13.10;;;;;;;5.66;86.86;101500.84;5075831;28;20511;-63
2022/02/10 04:00:55;;;;;;;29.17;12.65;;;;;;;5.00;87.32;101447.31;5054561;28;20041;-64
2022/02/10 04:13:25;;;;;;;34.22;13.05;;;;;;;4.73;87.37;101455.22;5114902;27;20492;-62
2022/02/10 04:16:08;;;;;;;28.67;12.88;;;;;;;4.71;87.56;101460.59;5110923;28;20054;-62
2022/02/10 04:21:37;;;;;;;25.45;12.15;;;;;;;4.72;87.43;101469.31;5110979;27;20522;-64
2022/02/10 04:24:35;;;;;;;28.45;13.18;;;;;;;4.67;87.77;101463.50;5093056;28;20066;-63
2022/02/10 04:27:05;;;;;;;25.75;12.85;;;;;;;4.73;87.50;101479.75;5110492;28;20043;-64
2022/02/10 04:32:36;;;;;;;24.35;12.77;;;;;;;4.66;87.16;101478.44;5094386;28;20048;-63
2022/02/10 04:43:54;;;;;;;28.02;12.43;;;;;;;4.58;87.33;101480.69;5095607;28;20044;-63
2022/02/10 04:57:36;;;;;;;25.80;13.57;;;;;;;4.54;87.42;101480.03;5109382;28;20043;-63
2022/02/10 05:17:46;;;;;;;28.27;12.55;;;;;;;4.90;87.35;101467.28;5090099;28;20044;-63
2022/02/10 05:19:58;;;;;;;26.67;12.98;;;;;;;4.93;86.60;101467.06;5089486;28;20055;-63
2022/02/10 05:22:50;;;;;;;26.33;12.63;;;;;;;4.94;86.53;101466.16;5074846;28;20028;-63
2022/02/10 05:34:03;;;;;;;28.75;12.57;;;;;;;5.11;86.14;101451.88;5089634;28;20054;-63
2022/02/10 05:36:23;;;;;;;25.70;13.23;;;;;;;5.16;85.71;101455.06;5041400;28;20040;-63
2022/02/10 05:38:57;;;;;;;29.65;13.38;;;;;;;5.17;85.46;101451.50;5070349;28;20471;-63
2022/02/10 05:44:29;;;;;;;27.80;13.80;;;;;;;5.24;85.58;101444.88;5111169;27;20125;-61
2022/02/10 05:47:28;;;;;;;26.55;12.32;;;;;;;5.25;85.32;101445.72;5105549;28;20040;-63
2022/02/10 05:58:29;;;;;;;21.88;11.98;;;;;;;5.25;84.91;101438.66;5110604;28;20054;-62
2022/02/10 06:53:53;;;;;;;30.75;11.50;;;;;;;5.52;84.30;101474.59;5084409;28;20033;-62
2022/02/10 07:05:12;;;;;;;22.27;10.07;;;;;;;5.50;83.43;101465.97;5094832;28;20105;-63
2022/02/10 07:07:44;;;;;;;23.58;10.15;;;;;;;5.54;83.84;101459.53;5093922;28;20037;-62
2022/02/10 07:10:41;;;;;;;28.73;10.73;;;;;;;5.56;83.08;101474.28;5095607;28;20531;-62
2022/02/10 07:49:37;;;;;;;26.02;10.60;;;;;;;5.92;82.45;101504.31;5110576;28;20040;-62
2022/02/10 07:55:08;;;;;;;31.10;11.13;;;;;;;6.00;81.99;101508.25;5107034;28;20067;-63
2022/02/10 08:00:33;;;;;;;30.67;10.85;;;;;;;6.02;81.83;101509.84;5109838;28;20350;-63
2022/02/10 08:50:41;;;;;;;34.40;13.00;;;;;;;6.39;82.39;101531.00;5106861;28;20048;-63
2022/02/10 08:55:56;;;;;;;35.65;13.18;;;;;;;6.53;81.79;101530.88;5103000;28;20036;-63
2022/02/10 09:04:08;;;;;;;36.28;14.20;;;;;;;6.68;82.10;101534.22;5092499;28;20036;-63
2022/02/10 09:07:36;;;;;;;33.85;14.00;;;;;;;6.62;82.52;101524.13;5087778;28;20132;-63
2022/02/10 09:15:23;;;;;;;;;;;;;;;6.83;82.10;101534.91;5081781;28;20076;-63
2022/02/10 09:18:20;;;;;;;30.95;13.10;;;;;;;6.90;82.38;101530.03;5100344;28;19927;-64
2022/02/10 09:24:03;;;;;;;35.25;14.00;;;;;;;6.96;82.14;101541.94;5091612;28;20396;-63
2022/02/10 09:49:28;;;;;;;33.22;13.95;;;;;;;7.28;81.09;101550.97;5093733;28;20047;-62
2022/02/10 09:59:34;;;;;;;27.92;13.55;;;;;;;7.32;80.75;101558.69;5092922;28;20583;-63
2022/02/10 10:02:09;;;;;;;30.70;12.90;;;;;;;7.35;81.57;101548.75;5092416;28;20075;-63
2022/02/10 10:04:43;;;;;;;29.95;13.65;;;;;;;7.40;82.68;101556.31;5092315;28;20059;-63
2022/02/10 10:13:31;;;;;;;29.60;12.85;;;;;;;7.28;84.35;101555.44;5111121;28;20411;-63
2022/02/10 10:21:42;;;;;;;25.70;11.93;;;;;;;7.32;85.80;101563.97;5090036;28;20083;-62
2022/02/10 10:24:52;;;;;;;30.75;13.30;;;;;;;7.22;86.99;101566.41;5089815;28;20040;-62
2022/02/10 10:44:48;;;;;;;23.27;12.00;;;;;;;7.17;88.06;101572.03;5104856;28;20047;-62
2022/02/10 10:52:53;;;;;;;25.15;11.18;;;;;;;6.95;89.18;101570.13;5088768;27;20386;-63
2022/02/10 10:55:29;;;;;;;31.48;13.18;;;;;;;6.99;89.52;101568.94;5072873;28;20036;-63
2022/02/10 10:57:54;;;;;;;30.95;13.23;;;;;;;6.90;89.53;101572.25;5073238;28;20047;-62
2022/02/10 11:24:55;;;;;;;39.38;16.15;;;;;;;6.72;92.67;101572.59;5068495;28;20044;-62
2022/02/10 11:39:39;;;;;;;43.20;19.55;;;;;;;6.60;92.30;101572.59;5065258;28;20139;-62
2022/02/10 12:00:46;;;;;;;38.87;19.07;;;;;;;6.75;93.03;101570.69;4991837;28;20070;-67
2022/02/10 12:31:55;;;;;;;29.10;14.48;;;;;;;6.75;94.29;101576.81;5001354;28;20049;-68
2022/02/10 13:34:54;;;;;;;12.60;4.80;;;;;;;6.91;89.08;101573.91;5115902;28;20498;-69
2022/02/10 14:14:06;;;;;;;22.20;11.48;;;;;;;7.85;88.13;101564.41;5033299;28;20431;-68
2022/02/10 14:16:38;;;;;;;24.42;13.80;;;;;;;8.01;88.23;101564.91;5027805;28;20050;-69
2022/02/10 14:19:15;;;;;;;;;;;;;;;8.13;88.02;101575.50;5032357;28;20103;-69
2022/02/10 14:21:58;;;;;;;27.25;14.85;;;;;;;8.32;85.67;101572.28;5018331;28;19948;-69
2022/02/10 14:27:12;;;;;;;29.83;15.57;;;;;;;8.34;86.20;101575.66;5035397;28;20049;-68
2022/02/10 14:29:41;;;;;;;25.25;12.05;;;;;;;8.53;83.65;101578.59;5036071;28;20056;-69
2022/02/10 14:32:10;;;;;;;19.67;10.63;;;;;;;8.57;82.36;101574.72;5020212;28;20447;-68
2022/02/10 14:34:37;;;;;;;23.40;10.45;;;;;;;8.49;82.65;101563.91;5003522;28;20103;-69
2022/02/10 14:37:38;;;;;;;19.50;9.65;;;;;;;8.34;84.34;101575.66;5036249;28;20045;-68
2022/02/10 14:40:12;;;;;;;18.70;8.93;;;;;;;8.37;84.17;101570.97;5035254;28;20034;-68
2022/02/10 15:16:49;;;;;;;16.30;6.93;;;;;;;7.63;85.26;101607.41;5010942;28;20054;-68
2022/02/10 15:21:54;;;;;;;15.10;8.68;;;;;;;7.63;84.25;101617.97;5084882;28;20414;-69
2022/02/10 15:31:29;;;;;;;16.30;8.15;;;;;;;7.57;84.64;101610.53;5067135;28;20481;-68
2022/02/10 15:36:09;;;;;;;18.65;8.50;;;;;;;7.49;85.10;101606.66;5125287;27;20395;-68
2022/02/10 15:48:02;;;;;;;15.82;8.02;;;;;;;7.41;85.30;101610.81;5091931;28;20103;-68
2022/02/10 15:49:52;;;;;;;15.93;8.48;;;;;;;7.39;86.49;101610.91;5105453;28;20143;-68
2022/02/10 15:55:53;;;;;;;16.95;8.02;;;;;;;7.47;87.47;101605.91;5102876;28;20036;-68
2022/02/10 16:12:48;;;;;;;21.10;8.68;;;;;;;7.57;86.43;101616.63;5099582;28;20040;-68
2022/02/10 16:17:29;;;;;;;19.92;9.13;;;;;;;7.54;87.45;101618.66;5106650;28;20044;-69
2022/02/10 16:19:55;;;;;;;19.90;9.05;;;;;;;7.48;88.09;101617.31;5099599;28;20111;-69
2022/02/10 16:22:25;;;;;;;20.58;9.00;;;;;;;7.55;86.98;101617.69;5089494;28;20126;-69
2022/02/10 16:25:00;;;;;;;16.45;8.48;;;;;;;7.52;87.76;101620.59;5103084;28;20043;-69
2022/02/10 16:27:31;;;;;;;20.80;9.60;;;;;;;7.56;87.93;101617.59;5105563;28;20055;-67
2022/02/10 16:30:05;;;;;;;20.55;9.60;;;;;;;7.49;87.73;101619.00;5105008;28;20040;-68
2022/02/10 16:32:39;;;;;;;22.42;10.75;;;;;;;7.27;88.25;101615.28;5102498;28;20101;-68
2022/02/10 16:35:11;;;;;;;21.42;9.65;;;;;;;7.30;89.08;101614.22;5104512;28;20036;-68
2022/02/10 16:37:39;;;;;;;21.17;10.05;;;;;;;7.38;88.10;101613.66;5094672;28;20101;-68
2022/02/10 16:40:11;;;;;;;18.83;9.82;;;;;;;7.25;88.10;101609.25;5103418;28;20078;-68
2022/02/10 16:42:38;;;;;;;18.13;9.30;;;;;;;7.36;88.73;101613.75;5058535;28;20054;-70
2022/02/10 16:45:10;;;;;;;21.52;10.48;;;;;;;7.19;89.01;101611.53;5097513;28;20399;-70
2022/02/10 16:47:42;;;;;;;22.40;10.95;;;;;;;7.10;90.09;101610.38;5087991;28;20044;-73
2022/02/10 16:50:14;;;;;;;23.25;11.02;;;;;;;7.14;90.55;101603.94;5093525;28;20040;-69
2022/02/10 16:52:52;;;;;;;21.25;11.30;;;;;;;6.98;90.93;101606.81;5090850;28;20036;-68
2022/02/10 16:56:08;;;;;;;25.45;11.32;;;;;;;7.14;89.69;101603.94;5068425;28;20032;-70
2022/02/10 17:01:31;;;;;;;24.98;12.18;;;;;;;7.07;89.29;101616.72;5067192;28;20410;-68
2022/02/10 17:04:04;;;;;;;28.73;12.07;;;;;;;7.07;89.24;101614.06;5046327;28;20081;-68
2022/02/10 17:16:40;;;;;;;29.58;12.50;;;;;;;6.92;88.62;101618.66;5038102;28;20045;-68
2022/02/10 17:18:38;;;;;;;25.23;12.30;;;;;;;7.00;90.43;101628.66;5029120;28;20060;-68
2022/02/10 17:20:44;;;;;;;26.08;11.15;;;;;;;7.02;88.57;101626.78;5017652;28;20057;-68
2022/02/10 17:26:14;;;;;;;18.95;8.73;;;;;;;7.03;84.08;101623.16;5010791;28;20056;-67
2022/02/10 17:28:41;;;;;;;21.65;9.13;;;;;;;7.04;85.06;101622.22;5030608;28;20512;-68
2022/02/10 17:37:01;;;;;;;24.27;10.50;;;;;;;6.82;86.40;101614.13;5047000;28;20041;-69
2022/02/10 17:53:26;;;;;;;22.80;9.27;;;;;;;6.72;84.82;101612.16;5025728;28;20038;-68
2022/02/10 17:55:53;;;;;;;34.30;8.13;;;;;;;6.94;83.04;101608.00;5047721;28;20041;-69
2022/02/10 17:58:23;;;;;;;20.67;7.95;;;;;;;6.82;84.21;101609.72;5015691;28;20037;-68
2022/02/10 18:00:51;;;;;;;20.63;7.95;;;;;;;6.88;84.29;101616.34;5027993;28;20125;-68
2022/02/10 18:03:18;;;;;;;20.33;8.02;;;;;;;6.70;85.63;101613.22;5012549;28;20401;-69
2022/02/10 18:08:39;;;;;;;17.40;8.10;;;;;;;6.63;86.32;101611.94;5043870;28;20037;-69
2022/02/10 18:13:57;;;;;;;19.35;6.30;;;;;;;6.84;82.70;101622.78;5106061;27;20128;-69
2022/02/10 18:16:30;;;;;;;14.80;6.32;;;;;;;6.84;82.82;101625.41;5069849;28;20141;-68
2022/02/10 18:19:06;;;;;;;21.80;6.78;;;;;;;6.81;83.02;101629.13;5057353;28;20048;-68
2022/02/10 18:27:24;;;;;;;15.07;6.32;;;;;;;6.96;81.09;101634.28;5070957;28;20131;-68
2022/02/10 19:06:57;;;;;;;15.88;2.85;;;;;;;5.05;85.29;101704.78;5065240;28;20072;-68
2022/02/10 19:09:03;;;;;;;9.38;2.38;;;;;;;4.94;84.86;101697.53;5050741;28;20554;-68
2022/02/10 19:11:30;;;;;;;11.25;2.55;;;;;;;4.78;86.07;101700.25;5068455;28;20095;-68
2022/02/10 19:13:58;;;;;;;7.38;2.33;;;;;;;4.88;86.52;101713.69;5052279;28;20041;-68
2022/02/10 19:16:25;;;;;;;7.18;1.95;;;;;;;4.96;84.79;101699.13;5052219;28;20032;-68
2022/02/10 19:18:53;;;;;;;7.95;2.05;;;;;;;4.83;84.22;101711.34;5068775;28;20037;-68
2022/02/10 19:21:20;;;;;;;5.63;1.80;;;;;;;5.11;84.43;101707.00;5048234;28;20570;-68
2022/02/10 19:23:47;;;;;;;6.57;1.95;;;;;;;4.89;86.13;101713.59;5080543;28;20044;-69
2022/02/10 19:26:14;;;;;;;7.13;1.80;;;;;;;4.94;84.07;101714.16;5052256;28;20124;-69
2022/02/10 19:28:41;;;;;;;7.57;1.75;;;;;;;5.00;82.89;101705.03;5066562;28;20052;-69
2022/02/10 19:31:10;;;;;;;8.40;1.98;;;;;;;5.08;82.39;101712.47;5052035;28;20396;-69
2022/02/10 19:33:37;;;;;;;7.63;2.10;;;;;;;5.12;81.98;101708.72;5065257;28;20045;-69
2022/02/10 19:36:04;;;;;;;7.28;2.15;;;;;;;4.95;83.25;101707.13;5068349;28;20037;-68
2022/02/10 19:38:31;;;;;;;5.28;2.00;;;;;;;4.95;83.01;101717.66;5065702;28;20098;-68
2022/02/10 19:40:58;;;;;;;5.97;2.50;;;;;;;4.88;83.65;101713.69;5063924;28;20041;-68
2022/02/10 19:43:32;;;;;;;8.00;2.45;;;;;;;4.88;85.23;101709.28;5049744;28;20056;-68
2022/02/10 19:45:58;;;;;;;10.43;2.47;;;;;;;4.77;84.04;101714.34;5057719;28;20037;-68
2022/02/10 19:48:26;;;;;;;9.32;2.17;;;;;;;4.82;83.74;101714.94;5052613;28;20056;-69
2022/02/10 19:50:54;;;;;;;8.55;2.28;;;;;;;4.72;83.89;101713.78;5064367;28;20048;-68
2022/02/10 19:53:22;;;;;;;9.13;2.45;;;;;;;4.80;84.22;101719.41;5047627;28;20037;-68
2022/02/10 19:55:51;;;;;;;8.18;2.30;;;;;;;4.87;85.31;101723.34;5053713;28;20072;-68
2022/02/10 19:58:22;;;;;;;8.38;2.60;;;;;;;4.78;84.88;101727.41;5054250;28;20048;-68
2022/02/10 20:00:52;;;;;;;10.25;2.97;;;;;;;4.74;85.92;101725.88;5054246;28;20564;-68
2022/02/10 20:03:22;;;;;;;12.03;3.00;;;;;;;4.67;85.34;101727.19;5067125;28;20044;-68
2022/02/10 20:05:51;;;;;;;6.47;2.58;;;;;;;4.83;85.36;101734.16;5062653;28;20037;-68
2022/02/10 20:08:21;;;;;;;10.65;3.15;;;;;;;4.78;86.01;101737.94;5061717;28;20103;-68
2022/02/10 20:10:53;;;;;;;10.75;2.88;;;;;;;4.61;84.54;101736.28;5037565;28;20061;-68
2022/02/10 20:13:23;;;;;;;9.20;2.67;;;;;;;4.56;85.23;101730.44;5058204;28;20053;-68
2022/02/10 20:15:51;;;;;;;9.73;2.90;;;;;;;4.64;86.24;101727.38;5039838;28;20132;-68
2022/02/10 20:18:19;;;;;;;8.73;2.10;;;;;;;4.49;85.02;101738.78;5046015;28;20051;-68
2022/02/10 20:20:53;;;;;;;10.45;2.25;;;;;;;4.56;84.07;101740.97;5034918;28;20045;-68
2022/02/10 20:23:21;;;;;;;10.15;2.20;;;;;;;4.54;84.45;101739.38;5002939;28;20037;-69
2022/02/10 20:26:03;;;;;;;8.35;2.20;;;;;;;4.54;86.46;101739.38;5037169;28;20053;-68
2022/02/10 20:28:30;;;;;;;10.77;2.80;;;;;;;4.58;85.85;101746.13;5047741;28;20068;-68
2022/02/10 20:31:01;;;;;;;5.90;2.13;;;;;;;4.64;85.58;101751.03;5047045;28;20497;-68
2022/02/10 20:33:30;;;;;;;7.60;2.05;;;;;;;4.56;85.13;101754.09;5012517;28;20409;-68
2022/02/10 20:36:00;;;;;;;6.78;2.17;;;;;;;4.37;84.95;101762.22;5045390;28;20512;-68
2022/02/10 20:38:29;;;;;;;8.38;2.00;;;;;;;4.46;85.03;101768.72;5040437;28;20068;-67
2022/02/10 20:41:01;;;;;;;5.57;1.90;;;;;;;4.29;83.78;101763.59;5025556;28;20054;-68
2022/02/10 20:43:29;;;;;;;8.38;1.58;;;;;;;4.28;83.12;101760.13;5022176;28;20119;-68
2022/02/10 20:46:00;;;;;;;10.80;2.05;;;;;;;4.25;83.64;101765.56;5039024;28;20058;-67
2022/02/10 20:48:30;;;;;;;8.38;1.42;;;;;;;4.09;84.92;101762.94;5039609;28;20201;-67
2022/02/10 20:50:58;;;;;;;3.55;1.40;;;;;;;4.10;85.52;101764.66;5041785;28;20041;-67
2022/02/10 20:53:29;;;;;;;4.40;1.45;;;;;;;3.97;84.78;101764.50;5052104;28;20045;-68
2022/02/10 20:56:00;;;;;;;5.38;1.33;;;;;;;4.10;84.00;101764.66;5044072;28;20071;-67
2022/02/10 20:58:29;;;;;;;5.80;1.45;;;;;;;4.10;83.28;101764.66;5044595;28;20033;-67
2022/02/10 21:00:59;;;;;;;6.70;1.40;;;;;;;4.07;83.74;101770.06;5006364;28;20037;-67
2022/02/10 21:03:30;;;;;;;3.40;1.40;;;;;;;4.00;84.45;101773.97;5046223;28;20409;-68
2022/02/10 21:06:06;;;;;;;4.90;1.55;;;;;;;4.11;85.35;101763.72;5032727;28;20060;-68
2022/02/10 21:11:08;;;;;;;6.10;1.50;;;;;;;4.26;82.90;101769.88;5018406;28;20060;-68
2022/02/10 21:13:35;;;;;;;3.78;1.48;;;;;;;4.20;84.30;101768.47;5045496;28;20301;-68
2022/02/10 21:16:02;;;;;;;8.20;1.80;;;;;;;4.39;83.73;101768.22;5041852;28;20524;-68
2022/02/10 21:18:29;;;;;;;7.78;1.92;;;;;;;4.23;82.74;101765.63;5034573;28;20043;-68
2022/02/10 21:21:03;;;;;;;9.40;2.03;;;;;;;4.13;85.55;101769.75;5037713;28;20045;-68
2022/02/10 21:23:37;;;;;;;8.35;1.80;;;;;;;4.01;84.25;101779.13;5030243;28;20458;-68
2022/02/10 21:26:05;;;;;;;9.50;2.03;;;;;;;4.08;83.74;101770.94;5061598;28;20059;-68
2022/02/10 21:28:36;;;;;;;7.47;1.88;;;;;;;3.83;84.39;101778.38;5049936;28;20091;-68
2022/02/10 21:31:05;;;;;;;8.95;3.88;;;;;;;3.89;84.92;101777.19;5041300;28;20047;-68
2022/02/10 21:36:57;;;;;;;10.48;3.22;;;;;;;3.61;86.57;101777.88;5121310;27;20145;-68
2022/02/10 21:39:08;;;;;;;9.38;2.72;;;;;;;3.81;86.65;101784.66;5071139;28;20074;-68
2022/02/10 21:45:39;;;;;;;18.42;2.60;;;;;;;3.80;86.97;101788.19;5097813;28;20147;-68
2022/02/10 22:01:52;;;;;;;8.45;2.10;;;;;;;3.87;88.29;101778.22;5071033;28;20070;-68
2022/02/10 22:03:37;;;;;;;6.55;2.28;;;;;;;3.93;88.93;101777.88;5094790;28;20066;-68
2022/02/10 22:12:02;;;;;;;12.00;2.30;;;;;;;3.97;87.32;101779.41;5108892;28;20036;-68
2022/02/10 22:20:06;;;;;;;7.90;1.70;;;;;;;3.91;86.49;101791.09;5091960;28;20039;-67
2022/02/10 22:22:38;;;;;;;10.93;2.30;;;;;;;3.99;87.24;101788.03;5086454;28;20039;-68
2022/02/10 22:25:11;;;;;;;5.20;1.85;;;;;;;3.98;85.83;101784.59;5077976;28;20388;-68
2022/02/10 22:27:43;;;;;;;8.13;2.95;;;;;;;3.90;86.88;101778.06;5084288;28;20050;-68
2022/02/10 22:30:19;;;;;;;7.25;2.40;;;;;;;3.77;86.81;101765.59;5108284;28;20044;-67
2022/02/10 22:32:56;;;;;;;7.53;2.70;;;;;;;3.69;87.29;101775.66;5091542;28;20168;-68
2022/02/10 22:35:25;;;;;;;8.13;2.60;;;;;;;3.64;88.51;101773.31;5098262;28;20126;-68
2022/02/10 22:37:53;;;;;;;7.68;2.33;;;;;;;3.68;88.52;101775.78;5087903;28;20047;-68
2022/02/10 22:43:07;;;;;;;7.45;2.55;;;;;;;3.73;87.88;101769.34;5108198;28;20113;-68
2022/02/10 22:45:34;;;;;;;9.02;2.20;;;;;;;3.77;88.78;101776.09;5084724;28;20047;-68
2022/02/10 22:48:00;;;;;;;8.98;2.63;;;;;;;3.65;88.16;101782.84;5091162;28;20047;-68
2022/02/10 22:50:27;;;;;;;10.80;2.78;;;;;;;3.76;88.86;101776.19;5074216;28;20086;-68
2022/02/10 22:52:54;;;;;;;10.25;2.80;;;;;;;3.82;86.66;101774.06;5059097;28;20051;-68
2022/02/10 22:55:22;;;;;;;6.32;2.53;;;;;;;3.85;86.52;101775.69;5079814;28;20123;-68
2022/02/10 22:57:50;;;;;;;8.43;2.70;;;;;;;3.82;88.00;101770.59;5093229;28;20039;-68
2022/02/10 23:00:35;;;;;;;10.95;2.90;;;;;;;3.78;87.04;101771.69;5078460;28;20040;-68
2022/02/10 23:03:02;;;;;;;8.48;2.38;;;;;;;3.80;86.65;101772.44;5085536;28;20036;-68
2022/02/10 23:05:29;;;;;;;12.43;2.90;;;;;;;3.74;86.88;101768.38;5095025;28;20070;-68
2022/02/10 23:07:58;;;;;;;7.38;2.63;;;;;;;3.78;88.45;101761.19;5093161;28;20040;-68
2022/02/10 23:10:57;;;;;;;10.25;2.88;;;;;;;3.81;86.31;101763.66;5095422;28;20043;-68
2022/02/10 23:13:15;;;;;;;7.65;2.60;;;;;;;3.66;86.98;101767.97;5095400;28;20040;-68
2022/02/10 23:15:42;;;;;;;7.50;2.63;;;;;;;3.76;86.42;101773.56;5077260;28;20051;-68
2022/02/10 23:18:12;;;;;;;8.02;2.83;;;;;;;3.82;86.44;101776.69;5077375;28;20403;-68
2022/02/10 23:20:39;;;;;;;6.88;2.65;;;;;;;3.74;87.23;101772.81;5093960;28;20403;-68
2022/02/10 23:23:08;;;;;;;9.30;2.70;;;;;;;3.61;86.86;101772.63;5095244;28;20044;-68
2022/02/10 23:25:37;;;;;;;9.27;2.80;;;;;;;3.55;87.89;101771.19;5077377;28;20036;-68
2022/02/10 23:28:06;;;;;;;8.40;2.63;;;;;;;3.64;87.00;101778.56;5089741;28;20077;-68
2022/02/10 23:30:34;;;;;;;9.68;2.95;;;;;;;3.66;87.21;101773.22;5074981;28;20037;-68
2022/02/10 23:33:17;;;;;;;10.70;2.83;;;;;;;3.63;86.67;101771.59;5074888;28;20044;-68
2022/02/10 23:38:38;;;;;;;10.77;2.90;;;;;;;3.72;87.85;101786.00;5073825;28;20538;-68
2022/02/10 23:41:53;;;;;;;9.13;3.15;;;;;;;3.53;86.83;101782.69;5074951;28;20139;-67
2022/02/10 23:43:53;;;;;;;8.02;3.10;;;;;;;3.38;88.31;101787.81;5091378;28;20051;-68
2022/02/10 23:46:20;;;;;;;12.43;3.80;;;;;;;3.36;87.85;101784.44;5093440;28;20036;-67
2022/02/10 23:48:48;;;;;;;9.55;3.08;;;;;;;3.34;87.04;101785.47;5094662;28;20132;-68
2022/02/10 23:51:17;;;;;;;8.40;3.70;;;;;;;3.36;88.42;101787.06;5094702;28;20070;-68
2022/02/10 23:53:44;;;;;;;9.38;3.42;;;;;;;3.34;87.94;101778.44;5094770;28;20048;-68
2022/02/10 23:56:15;;;;;;;10.65;3.50;;;;;;;3.54;87.36;101785.22;5094334;28;20040;-68
